KEQY

Charlotte-Monroe Executive Airport

Monroe, North Carolina, USA
METAR KEQY 220353Z AUTO 08003KT 10SM CLR M03/M15 A3052 RMK AO2 SLP361 T10331150 $
Observed Flight Rules
Jan-22 @ 03:53 UTC (32 minutes ago) Visual Flight Rules
Wind Visibility Clouds
80° at 3 knots 10 miles
  • Clear skies
Temperatures Readings
Current -3°C / 27°F
Dewpoint -15°C / 5°F
Humidity 39%
Altimeter 30.52" Hg
Pressure 1036.1 hPa
Elevation 212
METAR KEQY 220353Z AUTO 08003KT 10SM CLR M03/M15 A3052 RMK AO2 SLP361 T10331150 $
Observed Flight Rules
Jan-22 @ 03:53 UTC
(32 minutes ago)
VFR
Wind Visibility
80° at 3 knots 10 miles
Clouds
  • Clear skies
Temperature Dewpoint
-3°C / 27°F -15°C / 5°F
Humidity Altimeter Pressure
39% 30.52" Hg 1036.1 hPa